Georgetown, Massachusetts
Current Conditions -  °F | °C
As of 2:54 AM on Friday 31 Oct 2014 (Local Time) from KLWM Reporting Station
Overcast Overcast  
Wind Chill: 39°   Ceiling: 5500
Heat Index: 42°   Visibility: 10mi
Dew Point: 37°   Wind: 5mph
Humidity: 82%   Direction: 20°NNE
Pressure: 30.03"   Gusts: NA
Location:  42.73°N, 70.99°W
Report Text: KLWM 310654Z AUTO 02004KT 10SM SCT047 OVC055 06/03 A3003 RMK AO2 SLP170 T00560028
Loading
Personal Weather Stations






























Interactive Weather Map
Tropical Storm Tracking
New forecast layout! Learn more

10-Day Weather Forecast

Advertisements
Track Severe Weather on mobile